Date,TemperatureHighF,TemperatureAvgF,TemperatureLowF,DewpointHighF,DewpointAvgF,DewpointLowF,HumidityHigh,HumidityAvg,HumidityLow,PressureMaxIn,PressureMinIn,WindSpeedMaxMPH,WindSpeedAvgMPH,GustSpeedMaxMPH,PrecipitationSumIn
2012-12-1,35.0,31.0,29.0,29.0,27.9,25.0,98,88,74,0.00,40.00,0,-999,0,0.00
2012-12-2,34.0,30.4,23.0,31.0,27.1,21.0,99,88,73,0.00,40.00,0,-999,0,0.00
2012-12-3,24.0,20.2,16.0,22.0,17.3,13.0,96,88,78,0.00,40.00,0,-999,0,0.00
2012-12-4,30.0,23.1,16.0,29.0,21.2,13.0,98,92,81,0.00,40.00,0,-999,0,0.00
2012-12-5,33.0,30.0,27.0,31.0,28.6,23.0,98,95,85,0.00,40.00,0,-999,0,0.00
2012-12-6,29.0,25.3,21.0,23.0,20.7,15.0,91,83,73,0.00,40.00,0,-999,0,0.00
2012-12-7,21.0,17.0,16.0,17.0,13.8,12.0,94,87,79,0.00,40.00,0,-999,0,0.00
2012-12-8,17.0,11.9,0.0,16.0,8.8,-4.0,94,87,74,0.00,40.00,0,-999,0,0.00
2012-12-9,9.0,2.9,-2.0,3.0,-1.8,-6.0,88,80,62,0.00,40.00,0,-999,0,0.00
2012-12-10,18.0,13.6,6.0,14.0,10.4,1.0,94,87,79,0.00,40.00,0,-999,0,0.00
2012-12-11,21.0,18.2,14.0,20.0,16.3,11.0,97,92,84,0.00,40.00,0,-999,0,0.00
2012-12-12,25.0,21.8,18.0,22.0,18.2,13.0,95,86,74,0.00,40.00,0,-999,0,0.00
2012-12-13,25.0,22.6,20.0,23.0,20.5,18.0,95,91,86,0.00,40.00,0,-999,0,0.00
2012-12-14,29.0,24.3,20.0,23.0,19.6,15.0,96,82,67,0.00,40.00,0,-999,0,0.00
2012-12-15,22.0,17.4,11.0,18.0,12.0,7.0,91,79,69,0.00,40.00,0,-999,0,0.00
2012-12-16,17.0,13.4,11.0,15.0,11.1,7.0,94,90,80,0.00,40.00,0,-999,0,0.00
2012-12-17,24.0,18.7,13.0,23.0,16.0,8.0,97,89,78,0.00,40.00,0,-999,0,0.00
2012-12-18,13.0,7.7,1.0,10.0,2.0,-7.0,89,77,58,0.00,40.00,0,-999,0,0.00
2012-12-19,5.0,0.4,-4.0,0.0,-4.2,-8.0,87,80,74,0.00,40.00,0,-999,0,0.00
2012-12-20,19.0,10.5,-1.0,3.0,-1.0,-4.0,88,62,35,0.00,40.00,0,-999,0,0.00
2012-12-21,28.0,21.7,17.0,6.0,2.9,0.0,56,44,36,0.00,40.00,0,-999,0,0.00
2012-12-22,29.0,22.6,18.0,17.0,4.2,0.0,91,46,32,0.00,40.00,0,-999,0,0.00
2012-12-23,22.0,17.6,16.0,18.0,14.6,11.0,96,88,68,0.00,40.00,0,-999,0,0.00
2012-12-24,21.0,18.5,16.0,19.0,16.7,14.0,95,93,88,0.00,40.00,0,-999,0,0.00
2012-12-26,11.0,11.0,11.0,9.0,9.0,9.0,91,91,91,0.00,40.00,0,-999,0,0.00
2012-12-27,17.0,11.8,9.0,10.0,6.6,5.0,89,80,72,0.00,40.00,0,-999,0,0.00
2012-12-28,10.0,7.2,4.0,5.0,2.9,1.0,88,82,79,0.00,40.00,0,-999,0,0.00
2012-12-29,18.0,8.3,2.0,4.0,1.6,-1.0,88,75,48,0.00,40.00,0,-999,0,0.00
2012-12-30,16.0,9.6,4.0,9.0,5.4,1.0,89,83,70,0.00,40.00,0,-999,0,0.00
2012-12-31,9.0,3.3,0.0,2.0,-0.8,-3.0,88,82,68,0.00,40.00,0,-999,0,0.00